Mentor, Ohio
Current Conditions -  °F | °C
As of 8:45 AM on Saturday 25 Oct 2014 (Local Time) from KCGF Reporting Station
Overcast Overcast  
Wind Chill: 57°   Ceiling: 5000
Heat Index: 57°   Visibility: 10mi
Dew Point: 52°   Wind: 12mph
Humidity: 82%   Direction: 230°SW
Pressure: 29.9"   Gusts: NA
Location:  41.7°N, 81.34°W
Report Text: KCGF 251245Z 23010KT 10SM OVC050 14/11 A2990
Loading
Personal Weather Stations






























Interactive Weather Map
Tropical Storm Tracking
New forecast layout! Learn more

10-Day Weather Forecast

Advertisements
Track Severe Weather on mobile